Terminal Aerodrome Forecast
Issued by NWS New Orleans/Baton Rouge, LA

Home | Current Version | Previous Version | Text Only | Print | Product List | Glossary On
Versions: 1 2 3 4 5 6 7 8 9 10 11 12 13
000
FTUS44 KLIX 032320
TAFBTR
TAF
KBTR 032320Z 0400/0424 12008KT P6SM SKC
     FM040300 20004KT P6SM FEW250
     FM040900 00000KT P6SM BKN250
     FM042000 19006KT P6SM SCT050=

USA.gov is the U.S. government's official web portal to all federal, state and local government web resources and services.